This is the latest recevied weather packets stored in our database for station/object W0VI. If no packets are shown the sender has not sent any weather packets the latest 10 day(s).
| Time | Temp. | Humidity | Pressure | Rain* | Wind** | Luminosity | Snow |
|---|---|---|---|---|---|---|---|
| 1777489522 | 10.56° C | 40% | 1018.1 hPa | 0 mm | - | 274 W/m² | - |
| 1777489219 | 10.56° C | 41% | 1017.8 hPa | 0 mm | - | 215 W/m² | - |
| 1777488916 | 10.56° C | 41% | 1017.9 hPa | 0 mm | - | 275 W/m² | - |
| 1777488613 | 12.22° C | 39% | 1017.8 hPa | 0 mm | - | 362 W/m² | - |
| 1777488311 | 11.11° C | 43% | 1017.8 hPa | 0 mm | - | 546 W/m² | - |
| 1777488009 | 10.56° C | 42% | 1018 hPa | 0 mm | - | 311 W/m² | - |
| 1777487706 | 10.56° C | 42% | 1018 hPa | 0 mm | - | 275 W/m² | - |
| 1777487403 | 10.56° C | 42% | 1018.1 hPa | 0 mm | - | 246 W/m² | - |
| 1777487101 | 10.56° C | 41% | 1018 hPa | 0 mm | - | 340 W/m² | - |
| 1777486796 | 10.56° C | 43% | 1018.2 hPa | 0 mm | - | 212 W/m² | - |
| 1777486494 | 10° C | 41% | 1018.1 hPa | 0 mm | - | 727 W/m² | - |
| 1777486192 | 11.67° C | 40% | 1018.4 hPa | 0 mm | - | 724 W/m² | - |
| 1777485889 | 11.11° C | 42% | 1018.3 hPa | 0 mm | - | 741 W/m² | - |
| 1777485584 | 10° C | 42% | 1018.4 hPa | 0 mm | - | 658 W/m² | - |
| 1777485280 | 11.67° C | 39% | 1018.6 hPa | 0 mm | - | 638 W/m² | - |
| 1777484977 | 11.11° C | 40% | 1018.4 hPa | 0 mm | - | 663 W/m² | - |
| 1777484674 | 11.11° C | 41% | 1018.6 hPa | 0 mm | - | 666 W/m² | - |
| 1777484370 | 11.11° C | 41% | 1018.6 hPa | 0 mm | - | 696 W/m² | - |
| 1777484066 | 10° C | 42% | 1018.6 hPa | 0 mm | - | 645 W/m² | - |
| 1777483763 | 10° C | 42% | 1018.6 hPa | 0 mm | - | 651 W/m² | - |
| 1777483460 | 10.56° C | 40% | 1018.8 hPa | 0 mm | - | 655 W/m² | - |
| 1777483154 | 10° C | 44% | 1018.8 hPa | 0 mm | - | 653 W/m² | - |
| 1777482851 | 10.56° C | 42% | 1019 hPa | 0 mm | - | 674 W/m² | - |
| 1777482547 | 11.11° C | 39% | 1018.7 hPa | 0 mm | - | 673 W/m² | - |
| 1777482245 | 10.56° C | 42% | 1018.8 hPa | 0 mm | - | 674 W/m² | - |
* Rain latest hour (hover to see other rain measurements)
** Current wind speed in m/s (hover to see current wind gust speed)